createdAt,value
2023-03-02T00:01:57.731Z,100.00
2023-03-02T00:04:27.745Z,100.00
2023-03-02T00:06:57.975Z,100.00
2023-03-02T00:09:27.780Z,100.00
2023-03-02T00:11:57.493Z,100.00
2023-03-02T00:14:26.689Z,100.00
2023-03-02T00:16:55.476Z,100.00
2023-03-02T00:19:24.261Z,100.00
2023-03-02T00:21:53.464Z,100.00
2023-03-02T00:24:22.249Z,100.00
2023-03-02T00:26:51.040Z,100.00
2023-03-02T00:29:19.833Z,100.00
2023-03-02T00:31:48.746Z,100.00
2023-03-02T00:34:18.012Z,100.00
2023-03-02T00:36:49.728Z,100.00
2023-03-02T00:39:20.440Z,100.00
2023-03-02T00:41:49.498Z,100.00
2023-03-02T00:44:18.179Z,100.00
2023-03-02T00:46:47.136Z,100.00
2023-03-02T00:49:18.128Z,100.00
2023-03-02T00:51:49.356Z,100.00
2023-03-02T00:54:18.758Z,100.00
2023-03-02T00:56:47.546Z,100.00
2023-03-02T00:59:28.734Z,100.00
2023-03-02T01:02:04.002Z,100.00
2023-03-02T01:04:37.991Z,100.00
2023-03-02T01:07:10.888Z,100.00
2023-03-02T01:09:40.263Z,100.00
2023-03-02T01:12:11.613Z,100.00
2023-03-02T01:14:41.628Z,100.00
2023-03-02T01:17:10.620Z,100.00
2023-03-02T01:19:40.436Z,100.00
2023-03-02T01:22:09.436Z,100.00
2023-03-02T01:24:43.845Z,100.00
2023-03-02T01:27:13.150Z,100.00
2023-03-02T01:29:42.038Z,100.00
2023-03-02T01:32:11.080Z,100.00
2023-03-02T01:34:39.824Z,100.00
2023-03-02T01:37:10.146Z,100.00
2023-03-02T01:39:38.828Z,100.00
2023-03-02T01:42:07.723Z,100.00
2023-03-02T01:44:40.301Z,100.00
2023-03-02T01:47:15.435Z,100.00
2023-03-02T01:49:54.447Z,100.00
2023-03-02T01:52:24.282Z,100.00
2023-03-02T01:54:53.782Z,100.00
2023-03-02T01:57:24.313Z,100.00
2023-03-02T01:59:54.223Z,100.00
2023-03-02T02:02:23.066Z,100.00
2023-03-02T02:04:52.306Z,100.00
2023-03-02T02:07:21.544Z,100.00
2023-03-02T02:09:50.811Z,100.00
2023-03-02T02:12:21.639Z,100.00
2023-03-02T02:14:50.421Z,100.00
2023-03-02T02:17:19.928Z,100.00
2023-03-02T02:19:49.049Z,100.00
2023-03-02T02:22:22.729Z,100.00
2023-03-02T02:24:57.560Z,100.00
2023-03-02T02:27:30.146Z,100.00
2023-03-02T02:29:59.742Z,100.00
2023-03-02T02:32:30.592Z,100.00
2023-03-02T02:34:59.469Z,100.00
2023-03-02T02:37:36.579Z,100.00
2023-03-02T02:40:07.746Z,100.00
2023-03-02T02:42:38.325Z,100.00
2023-03-02T02:45:11.574Z,100.00
2023-03-02T02:47:40.407Z,100.00
2023-03-02T02:50:10.111Z,100.00
2023-03-02T02:52:41.285Z,100.00
2023-03-02T02:55:15.371Z,100.00
2023-03-02T02:57:44.468Z,100.00
2023-03-02T03:00:16.634Z,100.00
2023-03-02T03:02:48.110Z,100.00
2023-03-02T03:05:18.098Z,100.00
2023-03-02T03:07:47.309Z,100.00
2023-03-02T03:10:30.455Z,100.00
2023-03-02T03:13:00.444Z,100.00
2023-03-02T03:15:30.460Z,100.00
2023-03-02T03:17:59.547Z,100.00
2023-03-02T03:20:30.283Z,100.00
2023-03-02T03:23:01.112Z,100.00
2023-03-02T03:25:32.457Z,100.00
2023-03-02T03:28:03.906Z,100.00
2023-03-02T03:30:34.143Z,100.00
2023-03-02T03:33:04.474Z,100.00
2023-03-02T03:35:37.390Z,100.00
2023-03-02T03:38:07.276Z,100.00
2023-03-02T03:40:36.241Z,100.00
2023-03-02T03:43:07.570Z,100.00
2023-03-02T03:45:38.738Z,100.00
2023-03-02T03:48:07.842Z,100.00
2023-03-02T03:50:36.723Z,100.00
2023-03-02T03:53:05.299Z,100.00
2023-03-02T03:55:35.005Z,100.00
2023-03-02T03:58:04.306Z,100.00
2023-03-02T04:00:33.621Z,100.00
2023-03-02T04:03:05.571Z,100.00
2023-03-02T04:05:35.179Z,100.00
2023-03-02T04:08:05.291Z,100.00
2023-03-02T04:10:35.308Z,100.00
2023-03-02T04:13:04.611Z,100.00
2023-03-02T04:15:33.498Z,100.00
2023-03-02T04:18:02.381Z,100.00
2023-03-02T04:20:31.484Z,100.00
2023-03-02T04:22:59.877Z,100.00
2023-03-02T04:25:29.675Z,100.00
2023-03-02T04:28:17.877Z,100.00
2023-03-02T04:30:51.945Z,100.00
2023-03-02T04:33:21.006Z,100.00
2023-03-02T04:35:50.169Z,100.00
2023-03-02T04:38:19.631Z,100.00
2023-03-02T04:40:48.728Z,100.00
2023-03-02T04:43:17.734Z,100.00
2023-03-02T04:45:48.049Z,100.00
2023-03-02T04:48:16.837Z,100.00
2023-03-02T04:50:46.446Z,100.00
2023-03-02T04:53:15.609Z,100.00
2023-03-02T04:55:44.419Z,100.00
2023-03-02T04:58:14.928Z,100.00
2023-03-02T05:00:43.744Z,100.00
2023-03-02T05:03:12.533Z,100.00
2023-03-02T05:05:42.858Z,100.00
2023-03-02T05:08:11.645Z,100.00
2023-03-02T05:10:41.650Z,100.00
2023-03-02T05:13:10.353Z,100.00
2023-03-02T05:15:39.746Z,100.00
2023-03-02T05:18:09.457Z,100.00
2023-03-02T05:20:38.250Z,100.00
2023-03-02T05:23:07.154Z,100.00
2023-03-02T05:25:37.461Z,100.00
2023-03-02T05:28:07.171Z,100.00
2023-03-02T05:30:38.618Z,100.00
2023-03-02T05:33:07.013Z,100.00
2023-03-02T05:35:36.136Z,100.00
2023-03-02T05:38:05.594Z,100.00
2023-03-02T05:40:34.636Z,100.00
2023-03-02T05:43:03.535Z,100.00
2023-03-02T05:45:33.496Z,100.00
2023-03-02T05:48:03.204Z,100.00
2023-03-02T05:50:32.300Z,100.00
2023-03-02T05:53:02.829Z,100.00
2023-03-02T05:55:31.921Z,100.00
2023-03-02T05:58:00.507Z,100.00
2023-03-02T06:00:33.184Z,100.00
2023-03-02T06:03:02.710Z,100.00
2023-03-02T06:05:31.371Z,100.00
2023-03-02T06:07:59.976Z,100.00
2023-03-02T06:10:29.240Z,100.00
2023-03-02T06:12:58.044Z,100.00
2023-03-02T06:15:29.905Z,100.00
2023-03-02T06:17:58.584Z,100.00
2023-03-02T06:20:27.177Z,100.00
2023-03-02T06:22:55.980Z,100.00
2023-03-02T06:25:24.955Z,100.00
2023-03-02T06:27:54.049Z,100.00
2023-03-02T06:30:23.768Z,100.00
2023-03-02T06:32:52.674Z,100.00
2023-03-02T06:35:24.217Z,100.00
2023-03-02T06:37:53.294Z,100.00
2023-03-02T06:40:22.712Z,100.00
2023-03-02T06:42:51.597Z,100.00
2023-03-02T06:45:21.093Z,100.00
2023-03-02T06:47:50.061Z,100.00
2023-03-02T06:50:19.081Z,100.00
2023-03-02T06:52:49.092Z,100.00
2023-03-02T06:55:17.991Z,100.00
2023-03-02T06:57:47.700Z,100.00
2023-03-02T07:00:26.173Z,100.00
2023-03-02T07:02:57.032Z,100.00
2023-03-02T07:05:26.123Z,100.00
2023-03-02T07:07:55.540Z,100.00
2023-03-02T07:10:23.922Z,100.00
2023-03-02T07:12:55.544Z,100.00
2023-03-02T07:15:27.639Z,100.00
2023-03-02T07:17:56.555Z,100.00
2023-03-02T07:20:25.313Z,100.00
2023-03-02T07:22:55.539Z,100.00
2023-03-02T07:25:24.217Z,100.00
2023-03-02T07:27:57.138Z,100.00
2023-03-02T07:30:26.387Z,100.00
2023-03-02T07:32:55.296Z,100.00
2023-03-02T07:35:24.516Z,100.00
2023-03-02T07:37:52.770Z,100.00
2023-03-02T07:40:21.149Z,100.00
2023-03-02T07:42:49.321Z,100.00
2023-03-02T07:45:26.309Z,100.00
2023-03-02T07:47:54.780Z,100.00
2023-03-02T07:50:23.073Z,100.00
2023-03-02T07:52:52.052Z,100.00
2023-03-02T07:55:20.765Z,100.00
2023-03-02T07:57:49.529Z,100.00
2023-03-02T08:00:19.027Z,100.00
2023-03-02T08:02:47.968Z,100.00
2023-03-02T08:05:17.513Z,100.00
2023-03-02T08:07:47.382Z,100.00
2023-03-02T08:10:17.054Z,100.00
2023-03-02T08:12:45.687Z,100.00
2023-03-02T08:15:15.135Z,100.00
2023-03-02T08:17:44.248Z,100.00
2023-03-02T08:20:16.007Z,100.00
2023-03-02T08:22:44.779Z,100.00
2023-03-02T08:25:14.967Z,100.00
2023-03-02T08:27:46.474Z,100.00
2023-03-02T08:30:15.602Z,100.00
2023-03-02T08:32:47.906Z,100.00
2023-03-02T08:35:17.729Z,100.00
2023-03-02T08:37:46.927Z,100.00
2023-03-02T08:40:16.021Z,100.00
2023-03-02T08:42:45.339Z,100.00
2023-03-02T08:45:14.010Z,100.00
2023-03-02T08:47:43.100Z,100.00
2023-03-02T08:50:12.297Z,100.00
2023-03-02T08:52:41.086Z,100.00
2023-03-02T08:55:10.501Z,100.00
2023-03-02T08:57:41.722Z,100.00
2023-03-02T09:00:14.883Z,100.00
2023-03-02T09:02:44.226Z,100.00
2023-03-02T09:05:12.614Z,100.00
2023-03-02T09:07:41.297Z,100.00
2023-03-02T09:10:10.693Z,100.00
2023-03-02T09:12:40.923Z,100.00
2023-03-02T09:15:09.808Z,100.00
2023-03-02T09:17:41.664Z,100.00
2023-03-02T09:20:11.070Z,100.00
2023-03-02T09:22:39.963Z,100.00
2023-03-02T09:25:09.579Z,100.00
2023-03-02T09:27:39.292Z,100.00
2023-03-02T09:30:09.984Z,100.00
2023-03-02T09:32:38.896Z,100.00
2023-03-02T09:35:08.602Z,100.00
2023-03-02T09:37:39.116Z,100.00
2023-03-02T09:40:26.749Z,100.00
2023-03-02T09:43:15.214Z,100.00
2023-03-02T09:45:47.492Z,100.00
2023-03-02T09:48:23.742Z,100.00
2023-03-02T09:51:00.109Z,100.00
2023-03-02T09:53:52.651Z,97.99
2023-03-02T09:56:21.349Z,98.49
2023-03-02T09:58:56.280Z,97.77
2023-03-02T10:02:01.821Z,94.01
2023-03-02T10:04:31.739Z,89.56
2023-03-02T10:07:13.429Z,87.64
2023-03-02T10:09:41.630Z,85.37
2023-03-02T10:12:10.020Z,83.30
2023-03-02T10:14:50.138Z,80.44
2023-03-02T10:17:26.631Z,77.42
2023-03-02T10:20:00.914Z,72.76
2023-03-02T10:22:37.280Z,71.11
2023-03-02T10:25:14.979Z,71.43
2023-03-02T10:27:44.168Z,69.33
2023-03-02T10:30:33.377Z,68.77
2023-03-02T10:33:16.013Z,68.61
2023-03-02T10:35:48.848Z,69.22
2023-03-02T10:38:18.757Z,69.96
2023-03-02T10:40:53.637Z,68.40
2023-03-02T10:43:43.355Z,67.16
2023-03-02T10:46:12.770Z,65.10
2023-03-02T10:48:49.844Z,64.35
2023-03-02T10:51:34.618Z,61.33
2023-03-02T10:54:13.356Z,61.73
2023-03-02T10:56:42.519Z,63.65
2023-03-02T10:59:31.378Z,63.58
2023-03-02T11:02:04.463Z,64.41
2023-03-02T11:04:33.445Z,63.97
2023-03-02T11:07:28.988Z,62.95
2023-03-02T11:10:06.808Z,60.88
2023-03-02T11:12:36.389Z,60.66
2023-03-02T11:15:15.781Z,60.18
2023-03-02T11:17:45.115Z,60.15
2023-03-02T11:20:15.243Z,59.65
2023-03-02T11:22:44.766Z,58.97
2023-03-02T11:25:18.549Z,59.24
2023-03-02T11:27:48.869Z,57.05
2023-03-02T11:30:18.905Z,55.79
2023-03-02T11:32:56.380Z,56.41
2023-03-02T11:35:28.186Z,57.52
2023-03-02T11:37:58.498Z,56.12
2023-03-02T11:40:27.865Z,54.92
2023-03-02T11:42:57.263Z,54.32
2023-03-02T11:45:27.617Z,55.08
2023-03-02T11:48:03.311Z,55.10
2023-03-02T11:50:37.672Z,53.25
2023-03-02T11:53:12.647Z,53.09
2023-03-02T11:55:44.452Z,51.58
2023-03-02T11:58:16.823Z,50.92
2023-03-02T12:00:45.710Z,50.39
2023-03-02T12:03:18.087Z,51.53
2023-03-02T12:05:48.815Z,50.89
2023-03-02T12:08:19.247Z,50.45
2023-03-02T12:11:02.127Z,49.13
2023-03-02T12:13:35.254Z,47.52
2023-03-02T12:16:04.986Z,47.50
2023-03-02T12:18:50.236Z,47.83
2023-03-02T12:21:19.744Z,47.87
2023-03-02T12:23:51.403Z,48.22
2023-03-02T12:26:20.699Z,48.67
2023-03-02T12:28:57.752Z,49.04
2023-03-02T12:31:26.651Z,49.25
2023-03-02T12:33:56.384Z,49.70
2023-03-02T12:36:33.165Z,50.76
2023-03-02T12:39:05.123Z,52.42
2023-03-02T12:41:45.070Z,53.41
2023-03-02T12:44:13.921Z,54.98
2023-03-02T12:46:45.513Z,56.93
2023-03-02T12:49:20.761Z,59.05
2023-03-02T12:51:49.671Z,60.00
2023-03-02T12:54:22.521Z,59.95
2023-03-02T12:57:01.879Z,60.67
2023-03-02T12:59:30.542Z,62.67
2023-03-02T13:02:12.201Z,62.87
2023-03-02T13:04:41.743Z,61.41
2023-03-02T13:07:17.591Z,59.31
2023-03-02T13:09:56.503Z,59.86
2023-03-02T13:12:27.066Z,60.77
2023-03-02T13:14:56.704Z,61.69
2023-03-02T13:17:27.074Z,60.43
2023-03-02T13:20:01.186Z,59.62
2023-03-02T13:22:30.835Z,58.28
2023-03-02T13:25:05.738Z,56.55
2023-03-02T13:27:35.257Z,56.57
2023-03-02T13:30:24.080Z,56.17
2023-03-02T13:33:01.084Z,55.85
2023-03-02T13:35:33.442Z,55.04
2023-03-02T13:38:03.485Z,54.45
2023-03-02T13:40:37.878Z,54.32
2023-03-02T13:43:20.383Z,53.90
2023-03-02T13:45:53.992Z,52.95
2023-03-02T13:49:07.481Z,51.91
2023-03-02T13:51:41.536Z,51.23
2023-03-02T13:54:15.441Z,50.88
2023-03-02T13:56:46.893Z,50.78
2023-03-02T13:59:18.965Z,51.09
2023-03-02T14:01:48.043Z,52.04
2023-03-02T14:04:18.258Z,53.32
2023-03-02T14:06:47.979Z,54.79
2023-03-02T14:09:17.181Z,55.74
2023-03-02T14:11:54.183Z,56.41
2023-03-02T14:14:24.191Z,57.69
2023-03-02T14:16:52.863Z,58.99
2023-03-02T14:19:23.488Z,60.69
2023-03-02T14:21:52.377Z,62.47
2023-03-02T14:24:21.372Z,64.48
2023-03-02T14:26:50.571Z,67.00
2023-03-02T14:29:21.819Z,68.90
2023-03-02T14:31:51.264Z,70.21
2023-03-02T14:34:20.048Z,72.03
2023-03-02T14:36:49.758Z,74.15
2023-03-02T14:39:21.375Z,76.30
2023-03-02T14:41:54.160Z,78.97
2023-03-02T14:44:26.009Z,81.60
2023-03-02T14:46:54.730Z,83.82
2023-03-02T14:49:23.702Z,87.03
2023-03-02T14:52:02.590Z,89.00
2023-03-02T14:54:34.892Z,91.73
2023-03-02T14:57:09.515Z,93.81
2023-03-02T14:59:38.404Z,95.13
2023-03-02T15:02:22.672Z,96.48
2023-03-02T15:05:12.637Z,99.13
2023-03-02T15:07:44.498Z,99.89
2023-03-02T15:10:16.801Z,100.00
2023-03-02T15:12:45.865Z,100.00
2023-03-02T15:15:17.171Z,100.00
2023-03-02T15:17:46.207Z,100.00
2023-03-02T15:20:16.850Z,100.00
2023-03-02T15:22:47.369Z,100.00
2023-03-02T15:25:17.605Z,100.00
2023-03-02T15:27:47.297Z,100.00
2023-03-02T15:30:18.019Z,100.00
2023-03-02T15:32:48.391Z,100.00
2023-03-02T15:35:17.545Z,100.00
2023-03-02T15:37:49.320Z,100.00
2023-03-02T15:40:18.400Z,100.00
2023-03-02T15:42:46.979Z,100.00
2023-03-02T15:45:16.894Z,100.00
2023-03-02T15:47:45.481Z,100.00
2023-03-02T15:50:13.980Z,100.00
2023-03-02T15:52:44.078Z,100.00
2023-03-02T15:55:15.730Z,100.00
2023-03-02T15:57:45.136Z,100.00
2023-03-02T16:00:14.536Z,100.00
2023-03-02T16:02:43.287Z,100.00
2023-03-02T16:05:17.412Z,100.00
2023-03-02T16:07:48.683Z,100.00
2023-03-02T16:10:18.725Z,100.00
2023-03-02T16:12:47.286Z,100.00
2023-03-02T16:15:15.881Z,100.00
2023-03-02T16:17:48.651Z,100.00
2023-03-02T16:20:17.473Z,100.00
2023-03-02T16:22:45.983Z,100.00
2023-03-02T16:25:14.704Z,100.00
2023-03-02T16:27:47.594Z,100.00
2023-03-02T16:30:20.290Z,100.00
2023-03-02T16:32:51.029Z,100.00
2023-03-02T16:35:19.597Z,100.00
2023-03-02T16:37:48.107Z,100.00
2023-03-02T16:40:17.375Z,100.00
2023-03-02T16:42:46.784Z,100.00
2023-03-02T16:45:15.762Z,100.00
2023-03-02T16:47:45.078Z,100.00
2023-03-02T16:50:13.957Z,100.00
2023-03-02T16:52:42.854Z,100.00
2023-03-02T16:55:13.782Z,100.00
2023-03-02T16:57:43.493Z,100.00
2023-03-02T17:00:13.029Z,100.00
2023-03-02T17:02:43.634Z,100.00
2023-03-02T17:05:12.315Z,100.00
2023-03-02T17:07:41.406Z,100.00
2023-03-02T17:10:12.554Z,100.00
2023-03-02T17:12:42.368Z,100.00
2023-03-02T17:15:13.538Z,100.00
2023-03-02T17:17:43.008Z,100.00
2023-03-02T17:20:13.016Z,100.00
2023-03-02T17:22:41.668Z,100.00
2023-03-02T17:25:12.140Z,100.00
2023-03-02T17:27:41.946Z,100.00
2023-03-02T17:30:13.496Z,100.00
2023-03-02T17:32:42.387Z,100.00
2023-03-02T17:35:12.511Z,100.00
2023-03-02T17:37:42.129Z,100.00
2023-03-02T17:40:14.395Z,100.00
2023-03-02T17:42:43.586Z,100.00
2023-03-02T17:45:18.361Z,100.00
2023-03-02T17:47:48.121Z,100.00
2023-03-02T17:50:16.725Z,100.00
2023-03-02T17:52:46.617Z,100.00
2023-03-02T17:55:16.128Z,100.00
2023-03-02T17:57:45.122Z,100.00
2023-03-02T18:00:15.340Z,100.00
2023-03-02T18:02:43.915Z,100.00
2023-03-02T18:05:13.417Z,100.00
2023-03-02T18:07:42.619Z,100.00
2023-03-02T18:10:13.865Z,100.00
2023-03-02T18:12:42.978Z,100.00
2023-03-02T18:15:12.192Z,100.00
2023-03-02T18:17:40.849Z,100.00
2023-03-02T18:20:10.448Z,100.00
2023-03-02T18:22:42.041Z,100.00
2023-03-02T18:25:10.799Z,100.00
2023-03-02T18:27:40.232Z,100.00
2023-03-02T18:30:09.627Z,100.00
2023-03-02T18:32:38.691Z,100.00
2023-03-02T18:35:07.784Z,100.00
2023-03-02T18:37:37.932Z,100.00
2023-03-02T18:40:07.303Z,100.00
2023-03-02T18:42:36.819Z,100.00
2023-03-02T18:45:06.593Z,100.00
2023-03-02T18:47:37.046Z,100.00
2023-03-02T18:50:07.060Z,100.00
2023-03-02T18:52:36.769Z,100.00
2023-03-02T18:55:05.867Z,100.00
2023-03-02T18:57:40.265Z,100.00
2023-03-02T19:00:10.543Z,100.00
2023-03-02T19:02:39.499Z,100.00
2023-03-02T19:05:08.715Z,100.00
2023-03-02T19:07:37.801Z,100.00
2023-03-02T19:10:08.018Z,100.00
2023-03-02T19:12:41.514Z,100.00
2023-03-02T19:15:11.027Z,100.00
2023-03-02T19:17:40.628Z,100.00
2023-03-02T19:20:18.945Z,100.00
2023-03-02T19:22:48.240Z,100.00
2023-03-02T19:25:17.092Z,100.00
2023-03-02T19:27:47.260Z,100.00
2023-03-02T19:30:20.958Z,100.00
2023-03-02T19:32:50.086Z,100.00
2023-03-02T19:35:19.235Z,100.00
2023-03-02T19:37:48.176Z,100.00
2023-03-02T19:40:22.551Z,100.00
2023-03-02T19:42:51.756Z,100.00
2023-03-02T19:45:22.238Z,100.00
2023-03-02T19:47:51.377Z,100.00
2023-03-02T19:50:40.025Z,100.00
2023-03-02T19:53:10.448Z,100.00
2023-03-02T19:55:43.027Z,100.00
2023-03-02T19:58:17.959Z,100.00
2023-03-02T20:00:47.424Z,100.00
2023-03-02T20:03:17.386Z,100.00
2023-03-02T20:05:47.107Z,100.00
2023-03-02T20:08:17.213Z,100.00
2023-03-02T20:10:51.424Z,100.00
2023-03-02T20:13:24.914Z,100.00
2023-03-02T20:15:55.958Z,100.00
2023-03-02T20:18:24.953Z,100.00
2023-03-02T20:20:53.723Z,100.00
2023-03-02T20:23:23.653Z,100.00
2023-03-02T20:25:53.980Z,100.00
2023-03-02T20:28:23.594Z,100.00
2023-03-02T20:30:53.880Z,100.00
2023-03-02T20:33:24.561Z,100.00
2023-03-02T20:35:55.014Z,100.00
2023-03-02T20:38:29.513Z,100.00
2023-03-02T20:41:00.494Z,100.00
2023-03-02T20:43:29.423Z,100.00
2023-03-02T20:45:59.066Z,100.00
2023-03-02T20:48:28.235Z,100.00
2023-03-02T20:50:58.670Z,100.00
2023-03-02T20:53:27.848Z,100.00
2023-03-02T20:55:56.946Z,100.00
2023-03-02T20:58:25.545Z,100.00
2023-03-02T21:00:55.990Z,100.00
2023-03-02T21:03:25.248Z,100.00
2023-03-02T21:05:54.344Z,100.00
2023-03-02T21:08:23.956Z,100.00
2023-03-02T21:10:54.404Z,100.00
2023-03-02T21:13:24.494Z,100.00
2023-03-02T21:15:53.497Z,100.00
2023-03-02T21:18:25.039Z,100.00
2023-03-02T21:20:54.042Z,100.00
2023-03-02T21:23:22.843Z,100.00
2023-03-02T21:25:51.614Z,100.00
2023-03-02T21:28:20.603Z,100.00
2023-03-02T21:30:50.955Z,100.00
2023-03-02T21:33:20.401Z,100.00
2023-03-02T21:35:49.120Z,100.00
2023-03-02T21:38:18.932Z,100.00
2023-03-02T21:40:47.719Z,100.00
2023-03-02T21:43:16.611Z,100.00
2023-03-02T21:45:45.494Z,100.00
2023-03-02T21:48:14.715Z,100.00
2023-03-02T21:50:43.791Z,100.00
2023-03-02T21:53:12.587Z,100.00
2023-03-02T21:55:42.519Z,100.00
2023-03-02T21:58:10.996Z,100.00
2023-03-02T22:00:41.301Z,100.00
2023-03-02T22:03:10.089Z,100.00
2023-03-02T22:05:39.501Z,100.00
2023-03-02T22:08:08.753Z,100.00
2023-03-02T22:10:49.659Z,100.00
2023-03-02T22:13:26.346Z,100.00
2023-03-02T22:16:03.422Z,100.00
2023-03-02T22:18:35.190Z,100.00
2023-03-02T22:21:07.746Z,100.00
2023-03-02T22:23:36.740Z,100.00
2023-03-02T22:26:09.235Z,100.00
2023-03-02T22:28:41.290Z,100.00
2023-03-02T22:31:13.284Z,100.00
2023-03-02T22:33:44.521Z,100.00
2023-03-02T22:36:18.713Z,100.00
2023-03-02T22:38:47.820Z,100.00
2023-03-02T22:41:18.948Z,100.00
2023-03-02T22:43:49.779Z,100.00
2023-03-02T22:46:22.108Z,100.00
2023-03-02T22:48:51.069Z,100.00
2023-03-02T22:51:20.168Z,100.00
2023-03-02T22:53:50.668Z,100.00
2023-03-02T22:56:21.080Z,100.00
2023-03-02T22:58:50.523Z,100.00
2023-03-02T23:01:26.186Z,100.00
2023-03-02T23:03:55.547Z,100.00
2023-03-02T23:06:33.238Z,100.00
2023-03-02T23:09:02.861Z,100.00
2023-03-02T23:11:32.360Z,100.00
2023-03-02T23:14:01.452Z,100.00
2023-03-02T23:16:33.311Z,100.00
2023-03-02T23:19:02.010Z,100.00
2023-03-02T23:21:35.800Z,100.00
2023-03-02T23:24:05.128Z,100.00
2023-03-02T23:26:34.502Z,100.00
2023-03-02T23:29:23.070Z,100.00
2023-03-02T23:31:55.243Z,100.00
2023-03-02T23:34:24.741Z,100.00
2023-03-02T23:36:55.058Z,100.00
2023-03-02T23:39:24.346Z,100.00
2023-03-02T23:41:53.406Z,100.00
2023-03-02T23:44:22.232Z,100.00
2023-03-02T23:46:52.255Z,100.00
2023-03-02T23:49:21.365Z,100.00
2023-03-02T23:51:50.434Z,100.00
2023-03-02T23:54:19.531Z,100.00
2023-03-02T23:56:49.340Z,100.00
2023-03-02T23:59:19.776Z,100.00
